Time;durP1;ratioP1;P1;durP2;ratioP2;P2;SDS_P1;SDS_P2;PMS_P1;PMS_P2;Temp;Humidity;BMP_temperature;BMP_pressure;BME280_temperature;BME280_humidity;BME280_pressure;Samples;Min_cycle;Max_cycle;Signal;HPM_P1;HPM_P2
2022/02/07 00:00:46;;;;;;;17.70;11.25;;;;;;;;;;4966393;28;20474;-53
2022/02/07 00:03:22;;;;;;;15.60;10.80;;;;;;;;;;4966337;28;20027;-51
2022/02/07 00:05:47;;;;;;;18.13;11.73;;;;;;;;;;4966058;28;20061;-53
2022/02/07 00:08:13;;;;;;;17.05;11.13;;;;;;;;;;4981319;28;20042;-53
2022/02/07 00:10:39;;;;;;;17.92;12.32;;;;;;;;;;4985588;28;20023;-53
2022/02/07 00:13:04;;;;;;;17.17;11.90;;;;;;;;;;4985276;28;20100;-52
2022/02/07 00:15:30;;;;;;;18.10;12.10;;;;;;;;;;4975977;28;20038;-52
2022/02/07 00:17:55;;;;;;;16.85;11.77;;;;;;;;;;4966248;28;20274;-52
2022/02/07 00:20:22;;;;;;;15.37;10.93;;;;;;;;;;4965940;28;20517;-52
2022/02/07 00:22:48;;;;;;;15.43;10.52;;;;;;;;;;4949403;28;20285;-50
2022/02/07 00:25:13;;;;;;;18.00;11.30;;;;;;;;;;4966181;28;20405;-52
2022/02/07 00:27:38;;;;;;;17.95;11.88;;;;;;;;;;4976586;28;20597;-52
2022/02/07 00:30:04;;;;;;;17.33;11.52;;;;;;;;;;4971752;28;20031;-52
2022/02/07 00:32:29;;;;;;;16.65;11.35;;;;;;;;;;4965960;28;20041;-52
2022/02/07 00:34:54;;;;;;;18.37;11.57;;;;;;;;;;4970379;28;20109;-52
2022/02/07 00:37:19;;;;;;;17.20;11.23;;;;;;;;;;4977738;28;20325;-52
2022/02/07 00:39:54;;;;;;;16.10;10.88;;;;;;;;;;4966536;28;20728;-52
2022/02/07 00:42:30;;;;;;;17.90;11.43;;;;;;;;;;4966194;28;20605;-52
2022/02/07 00:45:00;;;;;;;14.75;10.75;;;;;;;;;;4965956;28;20021;-51
2022/02/07 00:47:25;;;;;;;16.40;11.17;;;;;;;;;;4974286;28;20030;-53
2022/02/07 00:49:50;;;;;;;16.33;10.80;;;;;;;;;;4973496;28;20799;-52
2022/02/07 00:52:15;;;;;;;17.02;11.55;;;;;;;;;;4948389;28;20219;-53
2022/02/07 00:54:41;;;;;;;14.73;10.05;;;;;;;;;;4968175;28;20058;-52
2022/02/07 00:57:06;;;;;;;16.23;10.83;;;;;;;;;;4979158;28;20043;-51
2022/02/07 00:59:31;;;;;;;17.42;11.30;;;;;;;;;;4965827;28;20290;-52
2022/02/07 01:01:56;;;;;;;16.52;10.85;;;;;;;;;;4965764;28;20034;-51
2022/02/07 01:04:22;;;;;;;14.53;10.57;;;;;;;;;;4967749;28;20485;-52
2022/02/07 01:06:47;;;;;;;15.40;10.97;;;;;;;;;;4969114;28;20555;-52
2022/02/07 01:09:19;;;;;;;14.73;10.57;;;;;;;;;;4969230;28;20693;-52
2022/02/07 01:12:06;;;;;;;16.70;10.98;;;;;;;;;;4969096;28;20664;-52
2022/02/07 01:19:52;;;;;;;16.20;10.57;;;;;;;;;;4968829;28;20780;-53
2022/02/07 01:54:39;;;;;;;15.40;10.30;;;;;;;;;;4964977;28;20121;-51
2022/02/07 01:57:06;;;;;;;15.27;10.38;;;;;;;;;;4959859;28;20067;-51
2022/02/07 01:59:31;;;;;;;15.25;10.57;;;;;;;;;;4958534;28;20070;-52
2022/02/07 02:01:57;;;;;;;14.32;9.98;;;;;;;;;;4967920;28;20066;-52
2022/02/07 02:04:22;;;;;;;15.18;10.13;;;;;;;;;;4967725;28;20027;-52
2022/02/07 02:06:47;;;;;;;14.25;9.93;;;;;;;;;;4953187;28;20105;-52
2022/02/07 02:09:13;;;;;;;16.43;11.03;;;;;;;;;;4987512;28;20030;-52
2022/02/07 02:11:40;;;;;;;15.23;10.02;;;;;;;;;;4987206;28;20022;-52
2022/02/07 02:47:56;;;;;;;14.73;9.93;;;;;;;;;;4979129;28;20022;-52
2022/02/07 02:50:35;;;;;;;14.57;10.20;;;;;;;;;;4970581;28;20097;-53
2022/02/07 02:53:04;;;;;;;14.90;9.88;;;;;;;;;;4966864;28;20037;-51
2022/02/07 02:55:30;;;;;;;15.05;10.35;;;;;;;;;;4975380;28;20030;-52
2022/02/07 02:57:55;;;;;;;15.25;10.70;;;;;;;;;;4986432;28;20401;-53
2022/02/07 03:00:20;;;;;;;14.32;10.40;;;;;;;;;;4986124;28;20041;-53
2022/02/07 03:02:46;;;;;;;15.48;10.00;;;;;;;;;;4986136;28;20713;-52
2022/02/07 03:05:11;;;;;;;14.43;9.93;;;;;;;;;;4986365;28;20058;-53
2022/02/07 03:07:36;;;;;;;15.75;10.35;;;;;;;;;;4985684;28;20511;-52
2022/02/07 03:10:03;;;;;;;16.00;11.00;;;;;;;;;;4972757;28;20472;-52
2022/02/07 03:12:30;;;;;;;14.48;10.40;;;;;;;;;;4966218;28;20603;-52
2022/02/07 03:16:35;;;;;;;15.90;11.07;;;;;;;;;;4970489;28;20093;-51
2022/02/07 03:17:40;;;;;;;15.00;10.10;;;;;;;;;;4985536;28;20513;-51
2022/02/07 03:20:06;;;;;;;16.47;10.03;;;;;;;;;;4985815;28;20053;-52
2022/02/07 03:22:31;;;;;;;14.60;9.68;;;;;;;;;;4985430;28;20278;-52
2022/02/07 03:24:56;;;;;;;14.90;9.93;;;;;;;;;;4985856;28;20026;-52
2022/02/07 03:27:22;;;;;;;14.83;9.73;;;;;;;;;;4985087;28;20797;-53
2022/02/07 03:29:47;;;;;;;14.00;9.63;;;;;;;;;;4985513;28;20646;-52
2022/02/07 03:32:12;;;;;;;13.90;9.80;;;;;;;;;;4985397;28;20811;-52
2022/02/07 03:34:37;;;;;;;14.37;10.03;;;;;;;;;;4983702;28;20261;-52
2022/02/07 03:37:03;;;;;;;14.23;9.40;;;;;;;;;;4965996;28;20298;-52
2022/02/07 03:39:28;;;;;;;15.80;10.13;;;;;;;;;;4966079;28;20348;-51
2022/02/07 03:41:53;;;;;;;13.27;9.43;;;;;;;;;;4965628;28;20050;-52
2022/02/07 03:44:18;;;;;;;13.17;9.07;;;;;;;;;;4966335;28;20645;-52
2022/02/07 03:46:43;;;;;;;14.73;10.00;;;;;;;;;;4968188;28;20649;-52
2022/02/07 03:49:09;;;;;;;14.03;9.50;;;;;;;;;;4985405;28;20500;-52
2022/02/07 03:51:34;;;;;;;13.48;9.88;;;;;;;;;;4985376;28;20273;-52
2022/02/07 03:53:59;;;;;;;15.50;9.80;;;;;;;;;;4985151;28;20034;-51
2022/02/07 03:56:25;;;;;;;14.90;9.97;;;;;;;;;;4969524;28;20041;-52
2022/02/07 03:58:50;;;;;;;14.63;9.65;;;;;;;;;;4965696;28;20854;-51
2022/02/07 04:01:17;;;;;;;13.77;10.00;;;;;;;;;;4965829;28;20038;-52
2022/02/07 04:03:43;;;;;;;13.38;9.32;;;;;;;;;;4965644;28;20365;-52
2022/02/07 04:06:14;;;;;;;13.45;9.10;;;;;;;;;;4948214;28;20197;-52
2022/02/07 04:08:43;;;;;;;12.32;8.70;;;;;;;;;;4963931;28;20072;-52
2022/02/07 04:11:20;;;;;;;12.02;8.30;;;;;;;;;;4965548;28;20050;-51
2022/02/07 04:13:54;;;;;;;13.80;8.88;;;;;;;;;;4965318;28;20575;-52
2022/02/07 04:16:20;;;;;;;12.73;9.05;;;;;;;;;;4980746;28;20129;-52
2022/02/07 04:19:13;;;;;;;14.13;9.18;;;;;;;;;;4966441;28;20121;-52
2022/02/07 04:21:33;;;;;;;14.80;9.43;;;;;;;;;;4964771;28;20458;-52
2022/02/07 04:23:59;;;;;;;13.10;8.88;;;;;;;;;;4965510;28;20105;-52
2022/02/07 04:26:24;;;;;;;14.73;9.00;;;;;;;;;;4963881;28;20117;-52
2022/02/07 04:28:49;;;;;;;13.48;8.93;;;;;;;;;;4984593;28;20112;-52
2022/02/07 04:31:14;;;;;;;12.63;8.97;;;;;;;;;;4983061;28;20030;-52
2022/02/07 04:33:40;;;;;;;12.53;8.67;;;;;;;;;;4965456;28;20029;-52
2022/02/07 04:36:05;;;;;;;13.20;8.67;;;;;;;;;;4978401;28;20031;-52
2022/02/07 04:38:30;;;;;;;13.20;8.82;;;;;;;;;;4969588;28;20316;-52
2022/02/07 04:40:56;;;;;;;10.55;7.93;;;;;;;;;;4969309;28;20022;-52
2022/02/07 04:43:21;;;;;;;11.77;8.50;;;;;;;;;;4969203;28;20026;-52
2022/02/07 04:59:15;;;;;;;12.07;7.73;;;;;;;;;;4983662;28;20030;-53
2022/02/07 05:01:24;;;;;;;10.50;7.95;;;;;;;;;;4974566;28;20369;-53
2022/02/07 05:03:57;;;;;;;10.48;7.53;;;;;;;;;;4968741;28;20041;-53
2022/02/07 05:14:36;;;;;;;10.73;7.30;;;;;;;;;;4969058;28;20038;-51
2022/02/07 05:17:05;;;;;;;11.25;7.32;;;;;;;;;;4986538;28;20062;-53
2022/02/07 05:19:31;;;;;;;10.68;7.22;;;;;;;;;;4987830;28;20038;-53
2022/02/07 05:21:56;;;;;;;10.80;7.33;;;;;;;;;;4987565;28;20034;-53
2022/02/07 05:24:21;;;;;;;11.53;7.17;;;;;;;;;;4987590;28;20030;-53
2022/02/07 05:26:46;;;;;;;9.23;7.03;;;;;;;;;;4987441;28;20037;-53
2022/02/07 05:29:12;;;;;;;10.40;7.27;;;;;;;;;;4986644;28;20273;-53
2022/02/07 05:31:37;;;;;;;11.02;7.78;;;;;;;;;;4986542;28;20792;-53
2022/02/07 05:34:03;;;;;;;11.63;7.63;;;;;;;;;;4985977;28;20101;-52
2022/02/07 05:36:28;;;;;;;10.52;7.45;;;;;;;;;;4978234;28;20034;-53
2022/02/07 05:38:58;;;;;;;9.82;6.90;;;;;;;;;;4973776;28;21072;-53
2022/02/07 05:41:23;;;;;;;9.98;6.72;;;;;;;;;;4979586;28;20026;-62
2022/02/07 05:43:50;;;;;;;9.23;6.55;;;;;;;;;;4985422;28;20504;-53
2022/02/07 05:46:16;;;;;;;9.40;6.30;;;;;;;;;;4984646;28;20026;-53
2022/02/07 05:48:41;;;;;;;9.13;6.38;;;;;;;;;;4985807;28;20037;-52
2022/02/07 05:51:06;;;;;;;10.10;7.05;;;;;;;;;;4985786;28;20432;-52
2022/02/07 05:53:32;;;;;;;9.13;6.70;;;;;;;;;;4986900;28;20097;-54
2022/02/07 05:55:57;;;;;;;8.55;6.22;;;;;;;;;;4973613;28;20039;-53
2022/02/07 05:58:24;;;;;;;9.93;6.30;;;;;;;;;;4967432;28;20054;-54
2022/02/07 06:00:49;;;;;;;8.63;5.80;;;;;;;;;;4966818;28;20274;-53
2022/02/07 06:03:15;;;;;;;9.02;6.63;;;;;;;;;;4981612;28;20085;-54
2022/02/07 06:05:40;;;;;;;10.00;6.75;;;;;;;;;;4976942;28;20488;-55
2022/02/07 06:08:05;;;;;;;8.97;6.30;;;;;;;;;;4980246;28;20100;-55
2022/02/07 06:10:30;;;;;;;9.75;6.10;;;;;;;;;;4970160;28;20708;-54
2022/02/07 06:12:56;;;;;;;9.48;6.13;;;;;;;;;;4949492;28;20022;-55
2022/02/07 06:15:21;;;;;;;8.52;6.25;;;;;;;;;;4973549;28;20045;-54
2022/02/07 06:17:53;;;;;;;9.00;6.07;;;;;;;;;;4976071;28;20094;-53
2022/02/07 06:20:19;;;;;;;8.98;5.90;;;;;;;;;;4979029;28;20040;-53
2022/02/07 06:22:46;;;;;;;8.10;5.90;;;;;;;;;;4980899;28;20018;-53
2022/02/07 06:25:12;;;;;;;8.55;5.90;;;;;;;;;;4980671;28;20025;-55
2022/02/07 06:27:38;;;;;;;8.60;5.95;;;;;;;;;;4985277;28;20037;-55
2022/02/07 06:30:03;;;;;;;7.97;5.47;;;;;;;;;;4985551;28;20484;-54
2022/02/07 06:32:28;;;;;;;9.38;5.55;;;;;;;;;;4983192;28;20279;-54
2022/02/07 06:34:54;;;;;;;7.13;5.27;;;;;;;;;;4981960;28;20106;-54
2022/02/07 06:37:19;;;;;;;7.28;5.50;;;;;;;;;;4964352;28;20298;-53
2022/02/07 06:39:44;;;;;;;7.93;5.10;;;;;;;;;;4983034;28;20037;-54
2022/02/07 06:42:09;;;;;;;7.47;5.13;;;;;;;;;;4983420;28;20343;-54
2022/02/07 06:44:34;;;;;;;7.70;5.60;;;;;;;;;;4982035;28;20708;-52
2022/02/07 06:47:00;;;;;;;7.50;5.38;;;;;;;;;;4983623;28;20277;-55
2022/02/07 06:49:25;;;;;;;6.57;5.10;;;;;;;;;;4982917;28;20084;-55
2022/02/07 06:51:50;;;;;;;7.88;5.40;;;;;;;;;;4970457;28;20819;-53
2022/02/07 06:54:15;;;;;;;6.87;4.80;;;;;;;;;;4973773;28;20092;-53
2022/02/07 06:56:41;;;;;;;8.57;5.47;;;;;;;;;;4985069;28;20676;-54
2022/02/07 06:59:07;;;;;;;7.70;5.35;;;;;;;;;;4972286;28;20274;-53
2022/02/07 07:01:32;;;;;;;7.03;4.90;;;;;;;;;;4966520;28;20209;-54
2022/02/07 07:03:57;;;;;;;7.13;4.95;;;;;;;;;;4966028;28;20350;-51
2022/02/07 07:06:23;;;;;;;5.88;4.65;;;;;;;;;;4966491;28;20054;-52
2022/02/07 07:08:52;;;;;;;6.57;4.57;;;;;;;;;;4982271;28;20041;-54
2022/02/07 07:11:21;;;;;;;6.65;5.10;;;;;;;;;;4961013;28;20058;-54
2022/02/07 07:13:54;;;;;;;7.03;4.90;;;;;;;;;;4964109;28;20102;-52
2022/02/07 07:18:50;;;;;;;6.43;4.60;;;;;;;;;;4965018;28;20035;-55
2022/02/07 07:21:15;;;;;;;7.10;5.15;;;;;;;;;;4968165;28;20031;-54
2022/02/07 07:23:41;;;;;;;7.60;4.90;;;;;;;;;;4969530;28;20026;-52
2022/02/07 07:26:07;;;;;;;12.25;5.68;;;;;;;;;;4965237;28;20274;-53
2022/02/07 07:28:32;;;;;;;13.65;5.82;;;;;;;;;;4969383;28;20019;-54
2022/02/07 07:30:59;;;;;;;9.98;5.10;;;;;;;;;;4964004;28;20059;-54
2022/02/07 07:33:25;;;;;;;13.05;6.05;;;;;;;;;;4963953;28;20078;-55
2022/02/07 07:35:50;;;;;;;12.23;5.25;;;;;;;;;;4966112;28;20061;-54
2022/02/07 07:38:15;;;;;;;11.88;6.07;;;;;;;;;;4967073;28;20035;-54
2022/02/07 07:40:41;;;;;;;16.33;6.57;;;;;;;;;;4964078;28;20022;-54
2022/02/07 07:43:07;;;;;;;14.83;5.63;;;;;;;;;;4964577;28;20093;-54
2022/02/07 07:45:40;;;;;;;19.75;6.07;;;;;;;;;;4972033;28;20266;-54
2022/02/07 07:48:10;;;;;;;16.15;5.80;;;;;;;;;;4976268;28;20037;-54
2022/02/07 07:53:17;;;;;;;14.80;5.70;;;;;;;;;;4977546;28;20020;-55
2022/02/07 08:03:43;;;;;;;17.85;6.13;;;;;;;;;;4964356;28;20089;-54
2022/02/07 08:06:19;;;;;;;14.10;5.50;;;;;;;;;;4922064;28;1222197;-55
2022/02/07 08:09:02;;;;;;;15.90;6.28;;;;;;;;;;4965731;28;20026;-55
2022/02/07 08:11:27;;;;;;;15.27;5.72;;;;;;;;;;4972787;28;20015;-56
2022/02/07 08:13:54;;;;;;;14.63;5.60;;;;;;;;;;4982925;28;20040;-52
2022/02/07 08:16:19;;;;;;;14.80;5.88;;;;;;;;;;4977869;28;20321;-55
2022/02/07 08:18:45;;;;;;;16.88;6.18;;;;;;;;;;4968368;28;20058;-54
2022/02/07 08:21:10;;;;;;;14.50;5.97;;;;;;;;;;4968694;28;20513;-54
2022/02/07 08:23:36;;;;;;;14.30;6.43;;;;;;;;;;4968594;28;20485;-54
2022/02/07 08:26:03;;;;;;;16.90;6.22;;;;;;;;;;4968433;28;20465;-54
2022/02/07 08:28:28;;;;;;;16.55;6.70;;;;;;;;;;4968617;28;20114;-53
2022/02/07 08:30:54;;;;;;;15.27;5.70;;;;;;;;;;4969651;28;20416;-54
2022/02/07 08:33:19;;;;;;;15.00;6.73;;;;;;;;;;4968185;28;20274;-53
2022/02/07 08:35:44;;;;;;;16.33;6.50;;;;;;;;;;4968873;28;20289;-54
2022/02/07 08:38:09;;;;;;;17.50;6.97;;;;;;;;;;4966735;28;20495;-54
2022/02/07 08:40:37;;;;;;;16.65;6.32;;;;;;;;;;4967965;28;20262;-53
2022/02/07 08:43:02;;;;;;;15.45;6.38;;;;;;;;;;4951310;28;20584;-53
2022/02/07 08:45:27;;;;;;;15.20;6.15;;;;;;;;;;4972591;28;20483;-55
2022/02/07 08:47:56;;;;;;;14.65;5.90;;;;;;;;;;4967400;28;20078;-54
2022/02/07 08:50:21;;;;;;;12.63;6.18;;;;;;;;;;4968709;28;20560;-53
2022/02/07 08:52:50;;;;;;;13.63;5.43;;;;;;;;;;4968407;28;20026;-55
2022/02/07 08:55:24;;;;;;;11.82;5.25;;;;;;;;;;4974193;28;20257;-53
2022/02/07 08:57:55;;;;;;;14.35;5.55;;;;;;;;;;4969948;28;20031;-54
2022/02/07 09:00:34;;;;;;;13.60;5.50;;;;;;;;;;4970446;28;20026;-54
2022/02/07 09:10:42;;;;;;;13.27;6.10;;;;;;;;;;4967404;28;20090;-52
2022/02/07 09:13:08;;;;;;;13.82;5.80;;;;;;;;;;4967623;28;20505;-54
2022/02/07 09:15:41;;;;;;;11.25;5.45;;;;;;;;;;4966530;28;20089;-55
2022/02/07 09:18:11;;;;;;;19.65;7.28;;;;;;;;;;4979828;28;20493;-55
2022/02/07 09:20:36;;;;;;;;;;;;;;;;;;4967204;28;20035;-54
2022/02/07 09:23:02;;;;;;;24.23;8.70;;;;;;;;;;4978111;28;19973;-55
2022/02/07 09:25:27;;;;;;;23.52;7.97;;;;;;;;;;4973489;28;20037;-55
2022/02/07 09:27:52;;;;;;;18.02;6.82;;;;;;;;;;4987909;28;20022;-54
2022/02/07 09:30:18;;;;;;;19.30;6.60;;;;;;;;;;4973768;28;20548;-55
2022/02/07 09:32:45;;;;;;;18.17;6.03;;;;;;;;;;4967933;28;20357;-54
2022/02/07 09:35:10;;;;;;;14.02;5.82;;;;;;;;;;4973031;28;20388;-52
2022/02/07 09:37:36;;;;;;;14.87;5.77;;;;;;;;;;4979462;28;20030;-54
2022/02/07 09:40:01;;;;;;;14.40;5.93;;;;;;;;;;4968317;28;20298;-52
2022/02/07 09:42:26;;;;;;;14.55;5.50;;;;;;;;;;4968121;28;20353;-55
2022/02/07 09:44:54;;;;;;;12.87;5.93;;;;;;;;;;4966797;28;20014;-54
2022/02/07 09:47:19;;;;;;;11.48;5.40;;;;;;;;;;4975489;28;20794;-54
2022/02/07 09:49:45;;;;;;;13.13;5.10;;;;;;;;;;4968068;28;20527;-54
2022/02/07 09:52:10;;;;;;;15.13;5.07;;;;;;;;;;4967090;28;20031;-52
2022/02/07 09:54:35;;;;;;;13.32;5.50;;;;;;;;;;4967679;28;20026;-54
2022/02/07 09:57:02;;;;;;;11.85;5.35;;;;;;;;;;4971472;28;20105;-54
2022/02/07 09:59:29;;;;;;;11.23;5.45;;;;;;;;;;4968729;28;20034;-53
2022/02/07 10:01:57;;;;;;;12.82;5.72;;;;;;;;;;4966579;28;20481;-53
2022/02/07 10:04:26;;;;;;;10.30;5.07;;;;;;;;;;4969443;28;20474;-52
2022/02/07 10:07:02;;;;;;;14.57;6.28;;;;;;;;;;4968498;28;20051;-53
2022/02/07 10:12:10;;;;;;;11.43;5.45;;;;;;;;;;4966355;28;20058;-55
2022/02/07 10:39:11;;;;;;;9.18;4.82;;;;;;;;;;4971273;28;20037;-53
2022/02/07 10:41:39;;;;;;;7.07;4.60;;;;;;;;;;4967306;28;20041;-54
2022/02/07 10:44:30;;;;;;;10.70;4.63;;;;;;;;;;4970196;28;20587;-51
2022/02/07 10:46:55;;;;;;;8.95;4.50;;;;;;;;;;4983234;28;20035;-53
2022/02/07 10:49:21;;;;;;;9.32;4.32;;;;;;;;;;4979470;28;20038;-50
2022/02/07 10:51:46;;;;;;;9.20;5.03;;;;;;;;;;4970914;28;20010;-53
2022/02/07 10:54:12;;;;;;;8.30;4.83;;;;;;;;;;4973143;28;20306;-54
2022/02/07 10:56:41;;;;;;;9.77;5.25;;;;;;;;;;4982423;28;20855;-52
2022/02/07 10:59:08;;;;;;;8.80;5.03;;;;;;;;;;4981836;28;20073;-52
2022/02/07 11:04:40;;;;;;;8.65;4.60;;;;;;;;;;4953907;28;20059;-54
2022/02/07 11:07:05;;;;;;;9.07;4.78;;;;;;;;;;4969411;28;20132;-52
2022/02/07 11:15:01;;;;;;;8.45;4.60;;;;;;;;;;4950006;28;20019;-53
2022/02/07 11:20:13;;;;;;;9.27;4.85;;;;;;;;;;4949475;28;20027;-52
2022/02/07 11:27:48;;;;;;;9.43;4.63;;;;;;;;;;4974142;28;20037;-51
2022/02/07 11:30:14;;;;;;;8.57;4.28;;;;;;;;;;4972609;28;20041;-51
2022/02/07 11:32:48;;;;;;;7.43;4.65;;;;;;;;;;4966042;28;20031;-52
2022/02/07 11:35:13;;;;;;;7.43;4.45;;;;;;;;;;4971215;28;20121;-53
2022/02/07 11:37:38;;;;;;;8.47;4.40;;;;;;;;;;4966560;28;20122;-54
2022/02/07 11:40:22;;;;;;;9.10;4.35;;;;;;;;;;4965110;28;20333;-54
2022/02/07 11:43:10;;;;;;;7.43;4.43;;;;;;;;;;4965604;28;20547;-54
2022/02/07 11:45:52;;;;;;;8.10;3.97;;;;;;;;;;4941903;28;20055;-55
2022/02/07 11:48:23;;;;;;;7.40;4.45;;;;;;;;;;4975987;28;20034;-54
2022/02/07 11:50:51;;;;;;;6.32;4.45;;;;;;;;;;4980547;28;20116;-54
2022/02/07 11:53:21;;;;;;;9.35;3.97;;;;;;;;;;4947894;28;20470;-53
2022/02/07 11:55:54;;;;;;;6.50;4.00;;;;;;;;;;4965361;28;20041;-54
2022/02/07 11:58:27;;;;;;;6.22;3.92;;;;;;;;;;4965382;28;20043;-52
2022/02/07 12:00:57;;;;;;;8.82;4.63;;;;;;;;;;4965434;28;20164;-53
2022/02/07 12:03:23;;;;;;;7.63;4.55;;;;;;;;;;4965789;28;20038;-53
2022/02/07 12:05:49;;;;;;;5.60;3.78;;;;;;;;;;4965998;28;20109;-53
2022/02/07 12:08:15;;;;;;;8.18;4.20;;;;;;;;;;4978718;28;20097;-54
2022/02/07 12:10:46;;;;;;;7.75;4.38;;;;;;;;;;4985123;28;20034;-53
2022/02/07 12:13:24;;;;;;;8.23;4.55;;;;;;;;;;4985306;28;20030;-52
2022/02/07 12:15:50;;;;;;;7.72;3.90;;;;;;;;;;4975649;28;20121;-53
2022/02/07 12:18:15;;;;;;;6.35;3.95;;;;;;;;;;4965698;28;20174;-53
2022/02/07 12:20:43;;;;;;;9.60;4.80;;;;;;;;;;4972246;28;20556;-53
2022/02/07 12:23:17;;;;;;;9.07;4.60;;;;;;;;;;4965896;28;20110;-55
2022/02/07 12:25:47;;;;;;;7.00;4.18;;;;;;;;;;4965585;28;20034;-52
2022/02/07 12:28:19;;;;;;;7.38;4.63;;;;;;;;;;4968403;28;20019;-55
2022/02/07 12:31:00;;;;;;;6.15;4.45;;;;;;;;;;4964986;28;20030;-55
2022/02/07 12:33:25;;;;;;;6.95;4.30;;;;;;;;;;4966868;28;20050;-54
2022/02/07 12:35:53;;;;;;;8.07;4.30;;;;;;;;;;4941626;28;20077;-54
2022/02/07 12:38:18;;;;;;;6.95;4.57;;;;;;;;;;4966243;28;20034;-53
2022/02/07 12:40:43;;;;;;;6.67;4.27;;;;;;;;;;4965304;28;20470;-55
2022/02/07 12:43:10;;;;;;;6.63;4.67;;;;;;;;;;4965595;28;20369;-51
2022/02/07 12:45:36;;;;;;;9.38;5.20;;;;;;;;;;4964456;28;20394;-53
2022/02/07 12:48:01;;;;;;;6.55;4.05;;;;;;;;;;4967729;28;20548;-52
2022/02/07 12:50:27;;;;;;;7.68;4.80;;;;;;;;;;4965651;28;20054;-55
2022/02/07 12:52:56;;;;;;;7.72;4.38;;;;;;;;;;4963870;28;20109;-53
2022/02/07 12:55:21;;;;;;;7.80;5.00;;;;;;;;;;4962495;28;20019;-54
2022/02/07 12:57:47;;;;;;;7.18;4.93;;;;;;;;;;4963831;28;20027;-53
2022/02/07 13:00:13;;;;;;;7.57;4.80;;;;;;;;;;4967790;28;20496;-53
2022/02/07 13:02:40;;;;;;;6.93;5.05;;;;;;;;;;4967976;28;20266;-59
2022/02/07 13:05:08;;;;;;;8.57;4.82;;;;;;;;;;4968316;28;20046;-54
2022/02/07 13:07:38;;;;;;;6.90;5.10;;;;;;;;;;4975696;28;20516;-54
2022/02/07 13:10:03;;;;;;;8.95;5.30;;;;;;;;;;4947161;28;20027;-61
2022/02/07 13:12:50;;;;;;;7.10;4.72;;;;;;;;;;4968942;28;20042;-54
2022/02/07 13:15:18;;;;;;;7.45;5.10;;;;;;;;;;4951269;28;20031;-54
2022/02/07 13:17:49;;;;;;;6.32;4.65;;;;;;;;;;4977065;28;20100;-56
2022/02/07 13:20:14;;;;;;;8.00;4.82;;;;;;;;;;4987869;28;20026;-55
2022/02/07 13:22:39;;;;;;;6.97;4.37;;;;;;;;;;4986517;28;20018;-54
2022/02/07 13:25:06;;;;;;;6.60;4.83;;;;;;;;;;4987620;28;20261;-52
2022/02/07 13:27:32;;;;;;;6.93;4.28;;;;;;;;;;4984031;28;20081;-53
2022/02/07 13:29:57;;;;;;;8.20;5.13;;;;;;;;;;4973671;28;20027;-54
2022/02/07 13:32:26;;;;;;;7.87;5.07;;;;;;;;;;4966426;28;20023;-54
2022/02/07 13:35:01;;;;;;;7.20;4.75;;;;;;;;;;4969509;28;20622;-53
2022/02/07 13:37:29;;;;;;;6.97;4.20;;;;;;;;;;4977002;28;20125;-55
2022/02/07 13:40:00;;;;;;;7.72;4.75;;;;;;;;;;4968158;28;20030;-51
2022/02/07 13:42:31;;;;;;;7.80;4.72;;;;;;;;;;4950783;28;20129;-52
2022/02/07 13:44:57;;;;;;;7.85;4.82;;;;;;;;;;4952395;28;20018;-54
2022/02/07 13:47:22;;;;;;;7.95;4.90;;;;;;;;;;4965980;28;20015;-54
2022/02/07 13:49:51;;;;;;;7.72;4.78;;;;;;;;;;4967360;28;20027;-54
2022/02/07 13:52:17;;;;;;;8.35;5.00;;;;;;;;;;4967031;28;20023;-53
2022/02/07 13:54:42;;;;;;;6.97;4.95;;;;;;;;;;4968985;28;20022;-54
2022/02/07 13:57:07;;;;;;;8.40;5.10;;;;;;;;;;4966310;28;20632;-54
2022/02/07 13:59:36;;;;;;;8.68;5.00;;;;;;;;;;4965942;28;20034;-54
2022/02/07 14:02:01;;;;;;;6.75;4.72;;;;;;;;;;4965955;28;20113;-54
2022/02/07 14:04:28;;;;;;;6.18;4.28;;;;;;;;;;4966242;28;20086;-53
2022/02/07 14:07:10;;;;;;;6.93;5.30;;;;;;;;;;4971661;28;20073;-54
2022/02/07 14:09:38;;;;;;;6.32;4.40;;;;;;;;;;4966583;28;20027;-54
2022/02/07 14:12:04;;;;;;;7.72;4.50;;;;;;;;;;4967334;28;20122;-53
2022/02/07 14:14:29;;;;;;;6.85;4.50;;;;;;;;;;4966056;28;20433;-53
2022/02/07 14:16:54;;;;;;;8.35;4.78;;;;;;;;;;4966370;28;20030;-52
2022/02/07 14:19:33;;;;;;;6.35;4.50;;;;;;;;;;4966167;28;20069;-52
2022/02/07 14:21:58;;;;;;;7.45;4.60;;;;;;;;;;4967205;28;20053;-53
2022/02/07 14:24:27;;;;;;;6.53;4.03;;;;;;;;;;4966748;28;20014;-53
2022/02/07 14:26:52;;;;;;;6.40;4.28;;;;;;;;;;4968773;28;20290;-54
2022/02/07 14:29:17;;;;;;;6.77;4.10;;;;;;;;;;4966396;28;20058;-53
2022/02/07 14:31:42;;;;;;;6.80;4.20;;;;;;;;;;4964997;28;20276;-54
2022/02/07 14:34:07;;;;;;;6.78;4.50;;;;;;;;;;4967345;28;20329;-53
2022/02/07 14:36:36;;;;;;;6.93;4.30;;;;;;;;;;4973601;28;20417;-53
2022/02/07 14:39:01;;;;;;;6.25;4.10;;;;;;;;;;4964943;28;20273;-53
2022/02/07 14:41:26;;;;;;;6.47;4.40;;;;;;;;;;4967073;28;20035;-52
2022/02/07 14:43:59;;;;;;;6.10;4.50;;;;;;;;;;4965308;28;20340;-52
2022/02/07 14:46:26;;;;;;;6.25;4.28;;;;;;;;;;4967011;28;20023;-52
2022/02/07 14:48:51;;;;;;;7.03;4.15;;;;;;;;;;4965887;28;20023;-53
2022/02/07 14:51:17;;;;;;;5.63;4.20;;;;;;;;;;4969085;28;20034;-53
2022/02/07 14:53:43;;;;;;;6.22;4.07;;;;;;;;;;4965002;28;20022;-53
2022/02/07 14:56:08;;;;;;;4.78;3.78;;;;;;;;;;4977612;28;20038;-52
2022/02/07 14:58:34;;;;;;;5.47;3.97;;;;;;;;;;4985380;28;20018;-52
2022/02/07 15:01:00;;;;;;;6.57;3.92;;;;;;;;;;4966953;28;20023;-52
2022/02/07 15:03:25;;;;;;;5.60;4.10;;;;;;;;;;4966316;28;20045;-51
2022/02/07 15:05:53;;;;;;;6.63;4.65;;;;;;;;;;4965976;28;20103;-52
2022/02/07 15:08:19;;;;;;;5.82;3.90;;;;;;;;;;4985385;28;20088;-51
2022/02/07 15:10:44;;;;;;;6.05;3.65;;;;;;;;;;4966458;28;20015;-51
2022/02/07 15:13:10;;;;;;;6.03;3.53;;;;;;;;;;4964997;28;20081;-52
2022/02/07 15:15:38;;;;;;;7.07;3.78;;;;;;;;;;4977353;28;20042;-51
2022/02/07 15:18:06;;;;;;;5.20;3.75;;;;;;;;;;4973629;28;20023;-52
2022/02/07 15:20:32;;;;;;;5.68;3.75;;;;;;;;;;4964558;28;20105;-52
2022/02/07 15:22:59;;;;;;;6.60;3.95;;;;;;;;;;4964650;28;20110;-53
2022/02/07 15:25:31;;;;;;;5.47;3.67;;;;;;;;;;4967213;28;20038;-53
2022/02/07 15:27:59;;;;;;;6.43;4.30;;;;;;;;;;4967882;28;20023;-52
2022/02/07 15:30:25;;;;;;;5.55;3.50;;;;;;;;;;4963484;28;20054;-51
2022/02/07 15:32:52;;;;;;;5.75;4.10;;;;;;;;;;4967084;28;20030;-51
2022/02/07 15:35:19;;;;;;;5.07;3.72;;;;;;;;;;4965487;28;20879;-51
2022/02/07 15:37:44;;;;;;;4.68;3.58;;;;;;;;;;4964866;28;20038;-51
2022/02/07 15:40:10;;;;;;;5.17;3.60;;;;;;;;;;4963747;28;21505;-52
2022/02/07 15:42:35;;;;;;;5.43;3.40;;;;;;;;;;4964680;28;20031;-52
2022/02/07 15:45:00;;;;;;;5.35;3.67;;;;;;;;;;4967226;28;20026;-52
2022/02/07 15:47:34;;;;;;;5.23;3.60;;;;;;;;;;4966890;28;20584;-52
2022/02/07 15:50:08;;;;;;;5.70;3.75;;;;;;;;;;4963884;28;20085;-52
2022/02/07 15:52:33;;;;;;;5.18;3.63;;;;;;;;;;4964602;28;20110;-52
2022/02/07 15:54:59;;;;;;;5.73;3.43;;;;;;;;;;4966174;28;20438;-52
2022/02/07 15:57:25;;;;;;;6.45;3.63;;;;;;;;;;4964018;28;20302;-52
2022/02/07 15:59:50;;;;;;;5.82;3.70;;;;;;;;;;4964766;28;20799;-51
2022/02/07 16:02:15;;;;;;;4.60;3.47;;;;;;;;;;4965615;28;20536;-52
2022/02/07 16:04:43;;;;;;;4.73;3.23;;;;;;;;;;4967170;28;20027;-52
2022/02/07 16:07:11;;;;;;;5.30;3.67;;;;;;;;;;4967646;28;20677;-52
2022/02/07 16:09:38;;;;;;;5.13;3.53;;;;;;;;;;4975532;28;20077;-52
2022/02/07 16:12:09;;;;;;;4.30;3.20;;;;;;;;;;4964384;28;20046;-53
2022/02/07 16:14:35;;;;;;;6.03;3.70;;;;;;;;;;4964262;28;20014;-52
2022/02/07 16:17:00;;;;;;;5.22;3.67;;;;;;;;;;4965554;28;20027;-52
2022/02/07 16:19:29;;;;;;;4.90;3.47;;;;;;;;;;4964699;28;20018;-53
2022/02/07 16:21:54;;;;;;;5.70;3.40;;;;;;;;;;4966182;28;20031;-53
2022/02/07 16:24:20;;;;;;;6.17;3.50;;;;;;;;;;4976485;28;20125;-52
2022/02/07 16:26:46;;;;;;;5.93;3.22;;;;;;;;;;4982733;28;20273;-53
2022/02/07 16:29:11;;;;;;;5.25;2.95;;;;;;;;;;4982485;28;20046;-53
2022/02/07 16:31:36;;;;;;;4.75;3.28;;;;;;;;;;4982582;28;20042;-53
2022/02/07 16:34:01;;;;;;;4.67;3.40;;;;;;;;;;4982717;28;20114;-53
2022/02/07 16:36:27;;;;;;;4.57;3.23;;;;;;;;;;4987734;28;20057;-52
2022/02/07 16:38:52;;;;;;;4.47;2.92;;;;;;;;;;4984192;28;20282;-52
2022/02/07 16:41:22;;;;;;;4.72;3.10;;;;;;;;;;4968642;28;20532;-52
2022/02/07 16:43:48;;;;;;;5.25;3.13;;;;;;;;;;4959783;28;20029;-52
2022/02/07 16:48:39;;;;;;;4.07;2.97;;;;;;;;;;4975598;28;20807;-52
2022/02/07 16:51:04;;;;;;;6.00;3.30;;;;;;;;;;4982857;28;20034;-52
2022/02/07 16:53:29;;;;;;;4.80;3.20;;;;;;;;;;4970060;28;20265;-52
2022/02/07 16:55:54;;;;;;;4.67;3.07;;;;;;;;;;4972985;28;20792;-52
2022/02/07 16:58:19;;;;;;;4.83;3.03;;;;;;;;;;4968157;28;20030;-52
2022/02/07 17:00:45;;;;;;;4.43;3.07;;;;;;;;;;4977501;28;20466;-52
2022/02/07 17:03:12;;;;;;;4.72;3.10;;;;;;;;;;4968974;28;20407;-52
2022/02/07 17:05:37;;;;;;;4.97;3.28;;;;;;;;;;4981906;28;20113;-51
2022/02/07 17:08:02;;;;;;;4.00;2.90;;;;;;;;;;4987069;28;20549;-51
2022/02/07 17:10:28;;;;;;;4.38;2.90;;;;;;;;;;4974504;28;20026;-52
2022/02/07 17:12:55;;;;;;;5.13;3.15;;;;;;;;;;4968335;28;20038;-53
2022/02/07 17:15:20;;;;;;;4.82;3.30;;;;;;;;;;4971549;28;20117;-52